Time;durP1;ratioP1;P1;durP2;ratioP2;P2;SDS_P1;SDS_P2;PMS_P1;PMS_P2;Temp;Humidity;BMP_temperature;BMP_pressure;BME280_temperature;BME280_humidity;BME280_pressure;Samples;Min_cycle;Max_cycle;Signal;HPM_P1;HPM_P2
2023/11/07 00:03:17;;;;;;;;;;;;;;;18.85;45.15;95435.53;10477784;28;2610;-56
2023/11/07 00:08:18;;;;;;;;;;;;;;;18.84;45.34;95445.25;10458674;28;2594;-57
2023/11/07 00:13:18;;;;;;;;;;;;;;;18.83;45.24;95446.31;10487483;28;2585;-57
2023/11/07 00:18:18;;;;;;;;;;;;;;;18.83;45.39;95448.16;10484226;28;2616;-56
2023/11/07 00:23:19;;;;;;;;;;;;;;;18.81;45.77;95453.69;10487678;28;2644;-57
2023/11/07 00:28:20;;;;;;;;;;;;;;;18.79;45.29;95458.41;10467344;28;2690;-57
2023/11/07 00:33:20;;;;;;;;;;;;;;;18.80;45.36;95461.81;10484232;28;2605;-57
2023/11/07 00:38:20;;;;;;;;;;;;;;;18.79;45.57;95455.00;10474839;28;2612;-54
2023/11/07 00:43:20;;;;;;;;;;;;;;;18.79;45.41;95462.88;10488982;28;2662;-55
2023/11/07 00:48:21;;;;;;;;;;;;;;;18.78;45.13;95461.28;10480418;28;2607;-58
2023/11/07 00:53:21;;;;;;;;;;;;;;;18.76;45.24;95458.94;10471894;28;2614;-55
2023/11/07 00:58:21;;;;;;;;;;;;;;;18.75;45.25;95465.25;10465762;28;2565;-58
2023/11/07 01:03:21;;;;;;;;;;;;;;;18.75;45.41;95456.59;10449132;28;2566;-57
2023/11/07 01:08:22;;;;;;;;;;;;;;;18.74;44.87;95455.00;10483567;28;2537;-57
2023/11/07 01:13:22;;;;;;;;;;;;;;;18.73;45.38;95456.88;10482163;28;2589;-57
2023/11/07 01:18:22;;;;;;;;;;;;;;;18.74;45.37;95465.50;10480052;28;2636;-55
2023/11/07 01:23:22;;;;;;;;;;;;;;;18.72;44.97;95455.28;10479248;28;2728;-56
2023/11/07 01:28:23;;;;;;;;;;;;;;;18.72;45.09;95465.78;10451958;28;2745;-57
2023/11/07 01:33:23;;;;;;;;;;;;;;;18.71;44.98;95445.06;10481001;28;2644;-56
2023/11/07 01:38:25;;;;;;;;;;;;;;;18.69;45.08;95443.47;10477586;28;2733;-55
2023/11/07 01:43:26;;;;;;;;;;;;;;;18.69;45.09;95437.47;10481641;28;4756;-57
2023/11/07 01:48:27;;;;;;;;;;;;;;;18.67;44.92;95436.91;10484525;28;2685;-57
2023/11/07 01:53:27;;;;;;;;;;;;;;;18.67;45.00;95434.28;10483998;28;2678;-56
2023/11/07 01:58:27;;;;;;;;;;;;;;;18.66;45.11;95436.16;10474688;28;2981;-57
2023/11/07 02:03:28;;;;;;;;;;;;;;;18.66;45.01;95435.34;10482075;28;2647;-56
2023/11/07 02:08:28;;;;;;;;;;;;;;;18.65;44.79;95418.00;10459764;28;2591;-56
2023/11/07 02:13:28;;;;;;;;;;;;;;;18.64;44.47;95424.34;10461104;28;2553;-58
2023/11/07 02:18:29;;;;;;;;;;;;;;;18.64;44.81;95416.47;10465144;28;2564;-56
2023/11/07 02:23:29;;;;;;;;;;;;;;;18.63;44.77;95425.38;10482933;28;2585;-56
2023/11/07 02:28:30;;;;;;;;;;;;;;;18.63;44.82;95414.88;10477560;28;2612;-56
2023/11/07 02:33:30;;;;;;;;;;;;;;;18.62;44.90;95413.31;10478023;28;2588;-56
2023/11/07 02:38:30;;;;;;;;;;;;;;;18.60;45.06;95416.22;10471593;28;2588;-56
2023/11/07 02:43:30;;;;;;;;;;;;;;;18.59;45.06;95421.72;10473837;28;4832;-57
2023/11/07 02:48:32;;;;;;;;;;;;;;;18.58;44.62;95422.78;10460638;28;2858;-55
2023/11/07 02:53:33;;;;;;;;;;;;;;;18.57;44.89;95431.69;10476199;28;2624;-56
2023/11/07 02:58:34;;;;;;;;;;;;;;;18.57;44.99;95421.19;10477289;28;2664;-57
2023/11/07 03:03:34;;;;;;;;;;;;;;;18.57;44.87;95429.88;10474802;28;2593;-57
2023/11/07 03:08:34;;;;;;;;;;;;;;;18.56;44.71;95427.53;10474521;28;2673;-55
2023/11/07 03:13:34;;;;;;;;;;;;;;;18.56;44.73;95435.41;10474400;28;2713;-57
2023/11/07 03:18:35;;;;;;;;;;;;;;;18.54;44.80;95427.78;10472904;28;2572;-56
2023/11/07 03:23:35;;;;;;;;;;;;;;;18.54;45.00;95430.41;10475122;28;2556;-54
2023/11/07 03:28:35;;;;;;;;;;;;;;;18.53;44.84;95430.66;10470593;28;2586;-55
2023/11/07 03:33:35;;;;;;;;;;;;;;;18.53;44.79;95430.66;10478139;28;2615;-56
2023/11/07 03:38:38;;;;;;;;;;;;;;;18.52;44.77;95424.66;10471754;28;2552;-56
2023/11/07 03:43:39;;;;;;;;;;;;;;;18.51;44.68;95430.16;10453397;28;4670;-53
2023/11/07 03:48:40;;;;;;;;;;;;;;;18.52;44.79;95431.72;10476566;28;2759;-57
2023/11/07 03:53:40;;;;;;;;;;;;;;;18.51;44.90;95433.56;10470484;28;2692;-56
2023/11/07 03:58:41;;;;;;;;;;;;;;;18.50;44.67;95436.47;10486470;28;2713;-56
2023/11/07 04:03:41;;;;;;;;;;;;;;;18.50;44.74;95436.47;10470770;28;2565;-57
2023/11/07 04:08:41;;;;;;;;;;;;;;;18.48;44.76;95436.75;10472512;28;2862;-55
2023/11/07 04:13:42;;;;;;;;;;;;;;;18.48;44.63;95443.81;10470474;28;2573;-56
2023/11/07 04:18:46;;;;;;;;;;;;;;;18.47;44.75;95443.03;10455134;28;2631;-56
2023/11/07 04:23:46;;;;;;;;;;;;;;;18.47;44.64;95434.34;10471872;28;2561;-55
2023/11/07 04:28:46;;;;;;;;;;;;;;;18.46;44.74;95440.69;10470646;28;2544;-56
2023/11/07 04:33:48;;;;;;;;;;;;;;;18.46;44.69;95443.31;10481040;28;2733;-56
2023/11/07 04:38:49;;;;;;;;;;;;;;;18.45;44.71;95447.75;10472885;28;2553;-57
2023/11/07 04:43:50;;;;;;;;;;;;;;;18.45;44.78;95441.72;10456024;28;4882;-55
2023/11/07 04:48:51;;;;;;;;;;;;;;;18.45;44.58;95439.09;10490552;28;2574;-54
2023/11/07 04:53:51;;;;;;;;;;;;;;;18.44;44.73;95432.28;10476766;28;2644;-54
2023/11/07 04:58:51;;;;;;;;;;;;;;;18.42;44.79;95439.59;10474200;28;2662;-56
2023/11/07 05:03:53;;;;;;;;;;;;;;;18.42;44.68;95444.84;10489107;28;2612;-60
2023/11/07 05:08:53;;;;;;;;;;;;;;;18.42;44.48;95447.47;10477793;28;2621;-56
2023/11/07 05:13:53;;;;;;;;;;;;;;;18.41;44.61;95449.31;10484521;28;2518;-56
2023/11/07 05:18:54;;;;;;;;;;;;;;;18.41;44.61;95453.78;10479656;28;2596;-54
2023/11/07 05:23:55;;;;;;;;;;;;;;;18.40;44.45;95452.22;10459812;28;2653;-56
2023/11/07 05:28:56;;;;;;;;;;;;;;;18.39;44.50;95458.50;10474711;28;2739;-56
2023/11/07 05:33:57;;;;;;;;;;;;;;;18.38;44.50;95455.09;10479552;28;2564;-56
2023/11/07 05:38:57;;;;;;;;;;;;;;;18.37;44.46;95445.66;10481822;28;3111;-55
2023/11/07 05:43:57;;;;;;;;;;;;;;;18.38;44.54;95446.44;10466183;28;4811;-56
2023/11/07 05:48:58;;;;;;;;;;;;;;;18.37;44.29;95445.66;10484026;28;2621;-54
2023/11/07 05:53:58;;;;;;;;;;;;;;;18.37;44.45;95444.84;10480927;28;2622;-54
2023/11/07 05:58:59;;;;;;;;;;;;;;;18.37;44.53;95439.59;10475400;28;2659;-54
2023/11/07 06:03:59;;;;;;;;;;;;;;;18.35;44.50;95447.75;10475177;28;2637;-56
2023/11/07 06:08:59;;;;;;;;;;;;;;;18.35;44.45;95454.84;10448855;28;2579;-54
2023/11/07 06:14:00;;;;;;;;;;;;;;;18.34;44.33;95472.41;10474931;28;2606;-54
2023/11/07 06:19:03;;;;;;;;;;;;;;;18.33;44.48;95472.69;10464734;28;2679;-56
2023/11/07 06:24:04;;;;;;;;;;;;;;;18.34;44.25;95471.66;10475612;28;2598;-56
2023/11/07 06:29:04;;;;;;;;;;;;;;;18.33;44.24;95481.34;10475290;28;2599;-56
2023/11/07 06:34:04;;;;;;;;;;;;;;;18.32;44.24;95485.00;10480354;28;2660;-53
2023/11/07 06:39:07;;;;;;;;;;;;;;;18.32;44.22;95481.63;10482096;28;2600;-54
2023/11/07 06:44:09;;;;;;;;;;;;;;;18.32;44.50;95473.75;10480137;28;4666;-56
2023/11/07 06:49:10;;;;;;;;;;;;;;;18.31;44.37;95472.16;10476375;28;2657;-57
2023/11/07 06:54:10;;;;;;;;;;;;;;;18.31;44.56;95477.41;10476953;28;2599;-55
2023/11/07 06:59:10;;;;;;;;;;;;;;;18.31;44.50;95480.81;10481328;28;2558;-58
2023/11/07 07:04:11;;;;;;;;;;;;;;;18.32;44.80;95479.00;10478548;28;2597;-57
2023/11/07 07:09:13;;;;;;;;;;;;;;;18.32;44.55;95486.88;10476806;28;2707;-57
2023/11/07 07:14:14;;;;;;;;;;;;;;;18.31;44.58;95480.03;10470374;28;2532;-56
2023/11/07 07:19:18;;;;;;;;;;;;;;;18.31;44.59;95493.94;10475789;28;2683;-56
2023/11/07 07:24:21;;;;;;;;;;;;;;;18.30;44.67;95500.22;10480438;28;2631;-56
2023/11/07 07:29:21;;;;;;;;;;;;;;;18.30;44.45;95499.47;10477192;28;2639;-57
2023/11/07 07:34:22;;;;;;;;;;;;;;;18.30;44.78;95497.59;10480756;28;2609;-56
2023/11/07 07:39:28;;;;;;;;;;;;;;;18.29;44.72;95501.31;10484564;28;2600;-55
2023/11/07 07:44:30;;;;;;;;;;;;;;;18.30;44.79;95500.22;10472585;28;2588;-54
2023/11/07 07:49:30;;;;;;;;;;;;;;;18.30;44.75;95499.47;10452442;28;2559;-55
2023/11/07 07:54:30;;;;;;;;;;;;;;;18.29;44.88;95500.50;10460284;28;2681;-56
2023/11/07 07:59:31;;;;;;;;;;;;;;;18.27;44.74;95497.34;10474938;28;2634;-56
2023/11/07 08:04:34;;;;;;;;;;;;;;;18.27;44.89;95500.78;10458979;28;2622;-56
2023/11/07 08:09:34;;;;;;;;;;;;;;;18.27;44.79;95500.78;10474420;28;2607;-57
2023/11/07 08:14:35;;;;;;;;;;;;;;;18.27;44.81;95502.59;10478715;28;2577;-57
2023/11/07 08:19:36;;;;;;;;;;;;;;;18.26;44.67;95501.06;10466194;28;2636;-56
2023/11/07 08:24:36;;;;;;;;;;;;;;;18.25;44.88;95502.88;10477563;28;2743;-56
2023/11/07 08:29:36;;;;;;;;;;;;;;;18.25;44.88;95500.25;10478982;28;2640;-57
2023/11/07 08:34:37;;;;;;;;;;;;;;;18.24;44.75;95497.88;10477269;28;2795;-54
2023/11/07 08:39:40;;;;;;;;;;;;;;;18.24;44.76;95495.25;10469101;28;2601;-56
2023/11/07 08:44:40;;;;;;;;;;;;;;;18.24;44.69;95508.38;10480161;28;4784;-56
2023/11/07 08:49:40;;;;;;;;;;;;;;;18.23;44.84;95520.72;10476746;28;2593;-54
2023/11/07 08:54:41;;;;;;;;;;;;;;;18.23;44.72;95527.81;10481070;28;2643;-57
2023/11/07 08:59:44;;;;;;;;;;;;;;;18.23;44.55;95530.41;10483940;28;2671;-56
2023/11/07 09:04:47;;;;;;;;;;;;;;;18.22;44.79;95518.34;10485613;28;2616;-57
2023/11/07 09:09:48;;;;;;;;;;;;;;;18.20;44.88;95518.63;10461400;28;2758;-56
2023/11/07 09:14:48;;;;;;;;;;;;;;;18.20;44.70;95523.06;10478622;28;2642;-55
2023/11/07 09:19:48;;;;;;;;;;;;;;;18.20;44.82;95528.31;10481640;28;2599;-55
2023/11/07 09:24:48;;;;;;;;;;;;;;;18.20;44.68;95530.94;10477020;28;2680;-56
2023/11/07 09:29:55;;;;;;;;;;;;;;;18.20;44.67;95530.94;10478572;28;2728;-56
2023/11/07 09:34:57;;;;;;;;;;;;;;;18.19;44.74;95524.13;10481284;28;2823;-56
2023/11/07 09:39:57;;;;;;;;;;;;;;;18.18;44.70;95512.06;10475234;28;2598;-57
2023/11/07 09:44:58;;;;;;;;;;;;;;;18.18;44.67;95520.72;10478038;28;4757;-56
2023/11/07 09:49:58;;;;;;;;;;;;;;;18.18;44.60;95519.91;10475931;28;2628;-56
2023/11/07 09:54:58;;;;;;;;;;;;;;;18.18;44.68;95515.47;10479805;28;2608;-56
2023/11/07 09:59:58;;;;;;;;;;;;;;;18.16;44.57;95514.94;10462355;28;2679;-56
2023/11/07 10:04:59;;;;;;;;;;;;;;;18.15;44.74;95521.25;10480449;28;2586;-56
2023/11/07 10:10:05;;;;;;;;;;;;;;;18.15;44.47;95513.38;10479158;28;2648;-55
2023/11/07 10:15:17;;;;;;;;;;;;;;;18.16;44.62;95519.41;10500354;28;2598;-56
2023/11/07 10:20:19;;;;;;;;;;;;;;;18.16;44.51;95519.41;10484332;28;2568;-55
2023/11/07 10:25:26;;;;;;;;;;;;;;;18.15;44.52;95517.84;10485711;28;2601;-56
2023/11/07 10:30:45;;;;;;;;;;;;;;;18.15;44.63;95520.47;10484832;28;2630;-55
2023/11/07 10:35:52;;;;;;;;;;;;;;;18.15;44.53;95517.84;10471102;28;2616;-55
2023/11/07 10:40:52;;;;;;;;;;;;;;;18.13;44.64;95509.44;10472503;28;2555;-56
2023/11/07 10:45:52;;;;;;;;;;;;;;;18.13;44.61;95504.19;10480637;28;4749;-56
2023/11/07 10:50:53;;;;;;;;;;;;;;;18.13;44.55;95488.47;10458740;28;2620;-55
2023/11/07 10:55:54;;;;;;;;;;;;;;;18.12;44.69;95484.25;10462786;28;2605;-55
2023/11/07 11:00:54;;;;;;;;;;;;;;;18.11;44.51;95477.44;10481086;28;2549;-54
2023/11/07 11:05:54;;;;;;;;;;;;;;;18.11;44.59;95475.63;10459580;28;2589;-56
2023/11/07 11:10:56;;;;;;;;;;;;;;;18.10;44.64;95483.72;10459074;28;2590;-55
2023/11/07 11:15:57;;;;;;;;;;;;;;;18.10;44.51;95481.09;10475862;28;2617;-55
2023/11/07 11:21:02;;;;;;;;;;;;;;;18.10;44.51;95484.53;10479151;28;2661;-56
2023/11/07 11:26:13;;;;;;;;;;;;;;;18.09;44.45;95480.34;10474179;28;2597;-56
2023/11/07 11:31:16;;;;;;;;;;;;;;;18.09;44.59;95476.94;10459832;28;2587;-57
2023/11/07 11:36:33;;;;;;;;;;;;;;;18.09;44.50;95474.31;10428587;28;2643;-56
2023/11/07 11:41:52;;;;;;;;;;;;;;;18.08;44.49;95478.75;10459331;28;2620;-56
2023/11/07 11:46:55;;;;;;;;;;;;;;;18.09;44.42;95484.78;10478139;28;2641;-57
2023/11/07 11:51:57;;;;;;;;;;;;;;;18.08;44.52;95480.59;10479832;28;2707;-58
2023/11/07 11:56:58;;;;;;;;;;;;;;;18.08;44.49;95472.72;10478125;28;2618;-56
2023/11/07 12:02:00;;;;;;;;;;;;;;;18.07;44.65;95479.81;10476906;28;2617;-56
2023/11/07 12:07:06;;;;;;;;;;;;;;;18.06;44.55;95472.19;10477027;28;2584;-57
2023/11/07 12:12:07;;;;;;;;;;;;;;;18.07;44.76;95476.41;10479934;28;2598;-54
2023/11/07 12:17:07;;;;;;;;;;;;;;;18.06;44.52;95467.75;10466314;28;2689;-55
2023/11/07 12:22:08;;;;;;;;;;;;;;;18.06;44.57;95465.13;10482207;28;2665;-56
2023/11/07 12:27:08;;;;;;;;;;;;;;;18.05;44.54;95457.53;10478955;28;2625;-55
2023/11/07 12:32:11;;;;;;;;;;;;;;;18.06;44.40;95456.44;10483583;28;2596;-55
2023/11/07 12:37:15;;;;;;;;;;;;;;;18.05;44.53;95453.06;10496533;28;2682;-55
2023/11/07 12:42:15;;;;;;;;;;;;;;;18.05;44.62;95450.44;10477504;28;4768;-56
2023/11/07 12:47:16;;;;;;;;;;;;;;;18.07;44.46;95452.78;10486083;28;2703;-56
2023/11/07 12:52:16;;;;;;;;;;;;;;;18.10;44.47;95444.38;10485752;28;2678;-53
2023/11/07 12:57:16;;;;;;;;;;;;;;;18.12;44.28;95445.69;10484437;28;2693;-58
2023/11/07 13:02:20;;;;;;;;;;;;;;;18.13;44.22;95442.03;10483790;28;2603;-57
2023/11/07 13:07:21;;;;;;;;;;;;;;;18.12;44.61;95439.66;10476791;28;2607;-57
2023/11/07 13:12:21;;;;;;;;;;;;;;;18.10;44.66;95431.28;10477132;28;2614;-56
2023/11/07 13:17:24;;;;;;;;;;;;;;;18.09;44.66;95434.97;10483209;28;2607;-56
2023/11/07 13:22:24;;;;;;;;;;;;;;;18.08;44.82;95433.38;10465911;28;2624;-58
2023/11/07 13:27:24;;;;;;;;;;;;;;;18.07;44.82;95429.97;10475827;28;2707;-55
2023/11/07 13:32:24;;;;;;;;;;;;;;;18.10;44.72;95437.31;10464310;28;2624;-58
2023/11/07 13:37:25;;;;;;;;;;;;;;;18.11;44.84;95427.63;10459235;28;2563;-57
2023/11/07 13:42:25;;;;;;;;;;;;;;;18.14;44.68;95430.47;10477079;28;2602;-57
2023/11/07 13:47:25;;;;;;;;;;;;;;;18.15;44.76;95433.91;10478140;28;2608;-56
2023/11/07 13:52:25;;;;;;;;;;;;;;;18.16;44.85;95430.22;10473485;28;2675;-56
2023/11/07 13:57:26;;;;;;;;;;;;;;;18.16;44.79;95430.22;10481654;28;2616;-56
2023/11/07 14:02:28;;;;;;;;;;;;;;;18.13;45.07;95420.25;10479316;28;2596;-56
2023/11/07 14:07:29;;;;;;;;;;;;;;;18.12;45.26;95418.66;10482317;28;2597;-54
2023/11/07 14:12:29;;;;;;;;;;;;;;;18.11;45.07;95422.38;10494528;28;2682;-56
2023/11/07 14:17:31;;;;;;;;;;;;;;;18.10;45.08;95420.78;10474511;28;2620;-56
2023/11/07 14:22:32;;;;;;;;;;;;;;;18.08;45.19;95421.06;10485003;28;2726;-57
2023/11/07 14:27:32;;;;;;;;;;;;;;;18.07;45.19;95421.31;10497933;28;2772;-56
2023/11/07 14:32:33;;;;;;;;;;;;;;;18.07;45.03;95437.84;10422289;28;2586;-57
2023/11/07 14:37:33;;;;;;;;;;;;;;;18.05;44.92;95436.53;10478075;28;2636;-57
2023/11/07 14:42:33;;;;;;;;;;;;;;;18.04;44.99;95433.13;10459139;28;4804;-58
2023/11/07 14:47:34;;;;;;;;;;;;;;;18.04;45.12;95429.72;10476275;28;2553;-57
2023/11/07 14:52:34;;;;;;;;;;;;;;;18.03;45.02;95430.78;10463013;28;2551;-55
2023/11/07 14:57:34;;;;;;;;;;;;;;;18.02;44.97;95435.22;10479653;28;2644;-54
2023/11/07 15:02:37;;;;;;;;;;;;;;;18.03;44.93;95430.78;10481751;28;2664;-55
2023/11/07 15:07:38;;;;;;;;;;;;;;;18.02;44.99;95422.13;10473311;28;2675;-55
2023/11/07 15:12:39;;;;;;;;;;;;;;;18.02;45.02;95429.19;10473840;28;2605;-54
2023/11/07 15:17:44;;;;;;;;;;;;;;;18.00;44.91;95426.84;10471621;28;2849;-56
2023/11/07 15:22:44;;;;;;;;;;;;;;;17.99;45.07;95435.75;10471285;28;2586;-53
2023/11/07 15:27:44;;;;;;;;;;;;;;;17.99;44.83;95434.97;10477440;28;3190;-54
2023/11/07 15:32:45;;;;;;;;;;;;;;;17.97;44.94;95444.94;10483759;28;2545;-57
2023/11/07 15:37:46;;;;;;;;;;;;;;;17.97;44.98;95453.56;10473303;28;2565;-57
2023/11/07 15:42:49;;;;;;;;;;;;;;;17.97;44.82;95442.31;10473070;28;4859;-56
2023/11/07 15:47:49;;;;;;;;;;;;;;;17.97;44.76;95439.69;10453188;28;2728;-59
2023/11/07 15:52:53;;;;;;;;;;;;;;;17.96;44.82;95445.97;10473510;28;2667;-54
2023/11/07 15:57:54;;;;;;;;;;;;;;;17.95;44.76;95447.81;10474123;28;2659;-54
2023/11/07 16:02:54;;;;;;;;;;;;;;;17.95;44.76;95452.28;10456146;28;2632;-56
2023/11/07 16:07:54;;;;;;;;;;;;;;;17.94;44.50;95451.50;10492702;28;2655;-56
2023/11/07 16:12:54;;;;;;;;;;;;;;;17.93;44.79;95442.03;10456039;28;2654;-56
2023/11/07 16:17:55;;;;;;;;;;;;;;;17.94;44.60;95450.69;10468869;28;2567;-57
2023/11/07 16:22:56;;;;;;;;;;;;;;;17.93;44.67;95446.53;10474914;28;2612;-57
2023/11/07 16:27:56;;;;;;;;;;;;;;;17.92;44.66;95456.22;10474159;28;2673;-57
2023/11/07 16:32:57;;;;;;;;;;;;;;;17.92;44.60;95458.03;10478027;28;2595;-57
2023/11/07 16:37:57;;;;;;;;;;;;;;;17.92;44.54;95471.16;10478608;28;2675;-57
2023/11/07 16:42:57;;;;;;;;;;;;;;;17.92;44.45;95484.28;10470851;28;4964;-57
2023/11/07 16:47:58;;;;;;;;;;;;;;;17.91;44.25;95490.56;10477578;28;2600;-58
2023/11/07 16:52:58;;;;;;;;;;;;;;;17.90;44.34;95497.66;10479032;28;2663;-58
2023/11/07 16:57:59;;;;;;;;;;;;;;;17.89;44.46;95501.31;10475815;28;2618;-57
2023/11/07 17:02:59;;;;;;;;;;;;;;;17.89;44.43;95515.22;10485462;28;2565;-57
2023/11/07 17:07:59;;;;;;;;;;;;;;;17.89;44.37;95509.97;10481462;28;2604;-57
2023/11/07 17:13:01;;;;;;;;;;;;;;;17.87;44.58;95513.88;10460214;28;2605;-57
2023/11/07 17:18:02;;;;;;;;;;;;;;;17.87;44.35;95517.31;10473869;28;2640;-57
2023/11/07 17:23:04;;;;;;;;;;;;;;;17.86;44.33;95520.19;10485437;28;2583;-56
2023/11/07 17:28:05;;;;;;;;;;;;;;;17.87;44.32;95527.78;10465726;28;2537;-57
2023/11/07 17:33:05;;;;;;;;;;;;;;;17.85;44.28;95524.66;10484349;28;2659;-56
2023/11/07 17:38:05;;;;;;;;;;;;;;;17.85;44.15;95534.34;10478427;28;2787;-56
2023/11/07 17:43:07;;;;;;;;;;;;;;;17.85;44.35;95536.97;10478160;28;4812;-56
2023/11/07 17:48:07;;;;;;;;;;;;;;;17.84;44.26;95562.41;10464248;28;2627;-55
2023/11/07 17:53:08;;;;;;;;;;;;;;;17.84;43.83;95559.78;10480849;28;2512;-55
2023/11/07 17:58:08;;;;;;;;;;;;;;;17.84;44.07;95565.03;10481926;28;2866;-57
2023/11/07 18:03:09;;;;;;;;;;;;;;;17.84;43.91;95564.25;10463821;28;2616;-57
2023/11/07 18:08:10;;;;;;;;;;;;;;;17.82;43.97;95569.75;10482375;28;2655;-57
2023/11/07 18:13:11;;;;;;;;;;;;;;;17.85;44.04;95579.72;10459154;28;2593;-55
2023/11/07 18:18:13;;;;;;;;;;;;;;;18.03;44.42;95588.13;10476984;28;2564;-55
2023/11/07 18:23:13;;;;;;;;;;;;;;;18.17;44.16;95586.56;10485146;28;2593;-55
2023/11/07 18:28:14;;;;;;;;;;;;;;;18.30;43.93;95597.31;10475791;28;2599;-54
2023/11/07 18:33:14;;;;;;;;;;;;;;;18.41;43.66;95600.72;10478176;28;2523;-56
2023/11/07 18:38:14;;;;;;;;;;;;;;;18.47;43.48;95605.75;10477683;28;1902;-56
2023/11/07 18:43:16;;;;;;;;;;;;;;;18.58;43.22;95606.53;10480834;28;1440;-52
2023/11/07 18:48:16;;;;;;;;;;;;;;;18.61;43.21;95612.03;10470781;28;1985;-55
2023/11/07 18:53:18;;;;;;;;;;;;;;;18.68;42.93;95617.03;10459683;28;1500;-55
2023/11/07 18:58:18;;;;;;;;;;;;;;;18.73;42.82;95613.63;10482157;28;2545;-54
2023/11/07 19:03:19;;;;;;;;;;;;;;;18.75;42.88;95628.06;10477358;28;1981;-54
2023/11/07 19:08:21;;;;;;;;;;;;;;;18.77;42.85;95633.84;10479394;28;1525;-55
2023/11/07 19:13:21;;;;;;;;;;;;;;;18.81;42.52;95641.97;10481376;28;1789;-55
2023/11/07 19:18:22;;;;;;;;;;;;;;;18.90;42.53;95643.78;10481316;28;1692;-56
2023/11/07 19:23:22;;;;;;;;;;;;;;;18.87;42.72;95646.94;10482122;28;1910;-54
2023/11/07 19:28:25;;;;;;;;;;;;;;;18.88;42.77;95650.34;10473621;28;1395;-55
2023/11/07 19:33:27;;;;;;;;;;;;;;;18.89;42.58;95660.59;10472728;28;1339;-55
2023/11/07 19:38:27;;;;;;;;;;;;;;;18.91;42.54;95663.75;10474818;28;1476;-56
2023/11/07 19:43:27;;;;;;;;;;;;;;;18.90;42.57;95664.78;10473923;28;4844;-54
2023/11/07 19:48:29;;;;;;;;;;;;;;;18.91;42.47;95670.84;10483932;28;1506;-56
2023/11/07 19:53:32;;;;;;;;;;;;;;;18.92;42.69;95681.06;10474736;28;2367;-56
2023/11/07 19:58:32;;;;;;;;;;;;;;;18.93;42.48;95682.66;10464439;28;1662;-55
2023/11/07 20:03:32;;;;;;;;;;;;;;;18.93;42.54;95679.25;10487807;28;1959;-56
2023/11/07 20:08:34;;;;;;;;;;;;;;;18.95;42.24;95685.00;10479456;28;1568;-57
2023/11/07 20:13:35;;;;;;;;;;;;;;;18.94;42.30;95686.84;10478365;28;1644;-56
2023/11/07 20:18:35;;;;;;;;;;;;;;;18.94;42.16;95699.97;10488121;28;1540;-54
2023/11/07 20:23:36;;;;;;;;;;;;;;;18.96;42.42;95697.88;10449211;28;1898;-57
2023/11/07 20:28:36;;;;;;;;;;;;;;;18.94;42.01;95699.22;10472740;28;1375;-55
2023/11/07 20:33:37;;;;;;;;;;;;;;;18.95;42.23;95704.19;10490066;28;1478;-56
2023/11/07 20:38:39;;;;;;;;;;;;;;;18.94;42.03;95699.97;10491285;28;1691;-55
2023/11/07 20:43:39;;;;;;;;;;;;;;;18.93;41.83;95701.03;10482572;28;4788;-55
2023/11/07 20:48:40;;;;;;;;;;;;;;;18.95;42.00;95698.16;10481131;28;1496;-55
2023/11/07 20:53:40;;;;;;;;;;;;;;;18.93;42.00;95703.66;10490882;28;1577;-56
2023/11/07 20:58:40;;;;;;;;;;;;;;;18.94;41.89;95705.22;10486714;28;1932;-55
2023/11/07 21:03:41;;;;;;;;;;;;;;;18.95;41.85;95709.44;10487192;28;1894;-56
2023/11/07 21:08:41;;;;;;;;;;;;;;;18.95;41.89;95714.69;10494165;28;2304;-56
2023/11/07 21:13:41;;;;;;;;;;;;;;;18.95;41.91;95698.94;10468001;28;1483;-57
2023/11/07 21:18:41;;;;;;;;;;;;;;;18.94;42.02;95709.72;10475245;28;1577;-53
2023/11/07 21:23:42;;;;;;;;;;;;;;;18.97;41.83;95709.19;10481668;28;1894;-57
2023/11/07 21:28:42;;;;;;;;;;;;;;;18.97;41.65;95717.84;10488313;28;1546;-56
2023/11/07 21:33:42;;;;;;;;;;;;;;;18.96;42.05;95724.16;10493860;28;1634;-55
2023/11/07 21:38:43;;;;;;;;;;;;;;;18.96;41.69;95726.00;10486720;28;1620;-56
2023/11/07 21:43:44;;;;;;;;;;;;;;;18.95;41.87;95729.66;10482815;28;4745;-57
2023/11/07 21:48:45;;;;;;;;;;;;;;;18.92;41.64;95736.22;10472481;28;1807;-57
2023/11/07 21:53:48;;;;;;;;;;;;;;;18.96;41.66;95739.91;10475782;28;1353;-56
2023/11/07 21:58:48;;;;;;;;;;;;;;;18.94;41.67;95746.50;10484302;28;2545;-57
2023/11/07 22:03:49;;;;;;;;;;;;;;;18.96;41.63;95750.41;10475314;28;2580;-57
2023/11/07 22:08:49;;;;;;;;;;;;;;;18.91;41.82;95747.81;10478142;28;2878;-57
2023/11/07 22:13:49;;;;;;;;;;;;;;;18.86;41.83;95753.03;10461669;28;2576;-58
2023/11/07 22:18:50;;;;;;;;;;;;;;;18.68;41.97;95748.31;10486739;28;2536;-56
2023/11/07 22:23:50;;;;;;;;;;;;;;;18.57;42.13;95741.44;10475787;28;2688;-55
2023/11/07 22:28:50;;;;;;;;;;;;;;;18.50;42.07;95743.56;10484831;28;2687;-56
2023/11/07 22:33:51;;;;;;;;;;;;;;;18.44;42.65;95747.22;10477326;28;2726;-55
2023/11/07 22:38:52;;;;;;;;;;;;;;;18.38;42.90;95753.47;10476120;28;2620;-54
2023/11/07 22:43:52;;;;;;;;;;;;;;;18.32;43.29;95762.38;10456038;28;4726;-53
2023/11/07 22:48:54;;;;;;;;;;;;;;;18.28;43.61;95763.97;10471395;28;2681;-55
2023/11/07 22:53:54;;;;;;;;;;;;;;;18.23;43.54;95785.72;10455339;28;2759;-55
2023/11/07 22:58:54;;;;;;;;;;;;;;;18.21;43.53;95779.13;10478274;28;2798;-52
2023/11/07 23:03:55;;;;;;;;;;;;;;;18.17;43.71;95780.69;10477469;28;2581;-55
2023/11/07 23:08:55;;;;;;;;;;;;;;;18.14;43.72;95783.81;10463516;28;2618;-55
2023/11/07 23:13:57;;;;;;;;;;;;;;;18.10;43.94;95788.81;10475720;28;2612;-52
2023/11/07 23:18:57;;;;;;;;;;;;;;;18.08;43.90;95790.09;10483269;28;2622;-55
2023/11/07 23:23:57;;;;;;;;;;;;;;;18.05;43.69;95780.94;10468389;28;2634;-54
2023/11/07 23:28:57;;;;;;;;;;;;;;;18.03;43.85;95777.78;10476578;28;2657;-56
2023/11/07 23:33:58;;;;;;;;;;;;;;;18.01;43.86;95781.69;10480265;28;2612;-54
2023/11/07 23:38:58;;;;;;;;;;;;;;;17.99;43.98;95787.16;10469642;28;2559;-54
2023/11/07 23:43:58;;;;;;;;;;;;;;;17.97;43.96;95789.25;10471604;28;4736;-59
2023/11/07 23:48:58;;;;;;;;;;;;;;;17.95;43.88;95780.84;10478512;28;2534;-56
2023/11/07 23:53:59;;;;;;;;;;;;;;;17.95;43.90;95793.22;10478221;28;2621;-54
2023/11/07 23:58:59;;;;;;;;;;;;;;;17.93;43.80;95787.44;10474334;28;2564;-54
